Time;durP1;ratioP1;P1;durP2;ratioP2;P2;SDS_P1;SDS_P2;PMS_P1;PMS_P2;Temp;Humidity;BMP_temperature;BMP_pressure;BME280_temperature;BME280_humidity;BME280_pressure;Samples;Min_cycle;Max_cycle;Signal;HPM_P1;HPM_P2
2022/10/13 00:00:30;;;;;;;17.48;11.20;;;9.80;99.90;;;;;;5062373;28;20143;-54
2022/10/13 00:03:02;;;;;;;21.70;12.15;;;9.80;99.90;;;;;;5060782;28;20127;-54
2022/10/13 00:05:29;;;;;;;18.33;11.40;;;9.80;99.90;;;;;;5061104;28;20048;-52
2022/10/13 00:07:55;;;;;;;18.47;11.63;;;9.80;99.90;;;;;;5059684;28;20044;-54
2022/10/13 00:10:21;;;;;;;19.83;12.05;;;9.80;99.90;;;;;;5062208;28;20299;-54
2022/10/13 00:12:47;;;;;;;21.13;12.80;;;9.80;99.90;;;;;;5063916;28;20048;-54
2022/10/13 00:15:12;;;;;;;22.90;11.63;;;9.80;99.90;;;;;;5061052;28;20468;-53
2022/10/13 00:17:39;;;;;;;19.30;12.25;;;9.70;99.90;;;;;;5063143;28;20049;-55
2022/10/13 00:20:05;;;;;;;18.85;12.30;;;9.70;99.90;;;;;;5061096;28;20055;-53
2022/10/13 00:22:31;;;;;;;23.20;12.60;;;9.80;99.90;;;;;;5064462;28;20086;-55
2022/10/13 00:24:57;;;;;;;19.40;11.80;;;9.80;99.90;;;;;;5061697;28;20666;-54
2022/10/13 00:27:23;;;;;;;23.15;11.88;;;9.80;99.90;;;;;;5059899;28;20119;-55
2022/10/13 00:29:48;;;;;;;20.15;12.20;;;9.90;99.90;;;;;;5059891;28;20045;-52
2022/10/13 00:32:14;;;;;;;18.15;11.13;;;9.90;99.90;;;;;;5061649;28;20041;-54
2022/10/13 00:34:40;;;;;;;18.48;12.13;;;9.90;99.90;;;;;;5060378;28;20109;-55
2022/10/13 00:37:05;;;;;;;18.30;12.18;;;9.90;99.90;;;;;;5061443;28;20048;-55
2022/10/13 00:39:31;;;;;;;17.60;11.68;;;10.00;99.90;;;;;;5062365;28;20123;-54
2022/10/13 00:41:58;;;;;;;18.92;11.77;;;9.90;99.90;;;;;;5067266;28;20520;-54
2022/10/13 00:44:58;;;;;;;17.88;11.88;;;9.90;99.90;;;;;;5058512;28;20410;-55
2022/10/13 00:47:29;;;;;;;20.30;12.45;;;9.90;99.90;;;;;;5060311;28;20052;-53
2022/10/13 00:49:56;;;;;;;19.55;12.43;;;9.90;99.90;;;;;;5058655;28;20036;-55
2022/10/13 00:52:22;;;;;;;19.50;12.15;;;9.90;99.90;;;;;;5060516;28;20491;-51
2022/10/13 00:54:49;;;;;;;20.58;12.05;;;9.90;99.90;;;;;;5062674;28;20037;-50
2022/10/13 00:57:16;;;;;;;18.92;12.25;;;9.90;99.90;;;;;;5059890;28;20413;-53
2022/10/13 00:59:42;;;;;;;22.60;11.75;;;9.90;99.90;;;;;;5058858;28;20044;-54
2022/10/13 01:02:08;;;;;;;20.00;11.88;;;10.00;99.90;;;;;;5059919;28;20445;-54
2022/10/13 01:04:39;;;;;;;26.60;13.15;;;10.00;99.90;;;;;;5060261;28;20055;-54
2022/10/13 01:07:05;;;;;;;21.38;12.45;;;10.00;99.90;;;;;;5057203;28;20044;-54
2022/10/13 01:09:36;;;;;;;20.98;12.75;;;10.00;99.90;;;;;;5060913;28;20039;-52
2022/10/13 01:12:11;;;;;;;19.58;12.05;;;9.90;99.90;;;;;;5060001;28;20047;-52
2022/10/13 01:14:51;;;;;;;20.58;11.18;;;9.90;99.90;;;;;;5059344;28;20116;-54
2022/10/13 01:17:57;;;;;;;16.90;11.48;;;9.80;99.90;;;;;;5059987;28;20061;-52
2022/10/13 01:20:46;;;;;;;20.00;11.43;;;9.70;99.90;;;;;;5034109;28;20057;-52
2022/10/13 01:23:49;;;;;;;18.35;12.02;;;9.70;99.90;;;;;;5034083;28;20427;-55
2022/10/13 01:26:32;;;;;;;18.08;12.13;;;9.60;99.90;;;;;;5034717;28;20131;-53
2022/10/13 01:29:19;;;;;;;18.75;12.07;;;9.60;99.90;;;;;;5034709;28;20163;-53
2022/10/13 01:31:51;;;;;;;21.27;13.40;;;9.60;99.90;;;;;;5036624;28;20246;-54
2022/10/13 01:34:35;;;;;;;16.55;12.10;;;9.50;99.90;;;;;;5033351;28;20627;-52
2022/10/13 01:37:04;;;;;;;18.70;12.73;;;9.60;99.90;;;;;;5035600;28;20064;-52
2022/10/13 01:39:47;;;;;;;16.33;12.00;;;9.60;99.90;;;;;;5037101;28;20511;-50
2022/10/13 01:42:23;;;;;;;18.48;12.10;;;9.60;99.90;;;;;;5038256;28;20255;-50
2022/10/13 01:44:57;;;;;;;22.35;12.45;;;9.60;99.90;;;;;;5034266;28;20052;-54
2022/10/13 01:47:25;;;;;;;19.48;12.23;;;9.50;99.90;;;;;;4998366;28;1069420;-55
2022/10/13 01:49:53;;;;;;;24.25;13.32;;;9.60;99.90;;;;;;5035474;28;20064;-53
2022/10/13 01:52:22;;;;;;;18.95;12.95;;;9.70;99.90;;;;;;5037141;28;20040;-53
2022/10/13 01:54:52;;;;;;;18.63;12.23;;;9.70;99.90;;;;;;5036824;28;20419;-55
2022/10/13 01:57:36;;;;;;;20.85;12.90;;;9.80;99.90;;;;;;5050554;28;20052;-53
2022/10/13 02:00:17;;;;;;;20.35;12.20;;;9.80;99.90;;;;;;5058680;28;20376;-52
2022/10/13 02:03:16;;;;;;;18.05;12.07;;;9.80;99.90;;;;;;5058505;28;20110;-51
2022/10/13 02:05:50;;;;;;;18.45;12.75;;;9.90;99.90;;;;;;5057618;28;20059;-54
2022/10/13 02:08:24;;;;;;;20.17;11.65;;;9.90;99.90;;;;;;5060958;28;20442;-50
2022/10/13 02:10:59;;;;;;;21.65;13.23;;;10.00;99.90;;;;;;5058166;28;20104;-53
2022/10/13 02:13:28;;;;;;;19.10;12.38;;;9.90;99.90;;;;;;5074700;28;20041;-52
2022/10/13 02:15:57;;;;;;;20.95;12.90;;;10.00;99.90;;;;;;5056837;28;20094;-54
2022/10/13 02:18:27;;;;;;;19.90;12.23;;;10.10;99.90;;;;;;5059757;28;20044;-53
2022/10/13 02:20:54;;;;;;;22.88;12.80;;;10.10;99.90;;;;;;5065110;28;20043;-55
2022/10/13 02:23:20;;;;;;;19.83;11.88;;;10.10;99.90;;;;;;5056385;28;20045;-54
2022/10/13 02:25:48;;;;;;;19.58;12.10;;;10.10;99.90;;;;;;5060430;28;20208;-50
2022/10/13 02:28:14;;;;;;;20.83;12.05;;;10.10;99.90;;;;;;5060803;28;20045;-51
2022/10/13 02:30:41;;;;;;;22.15;12.35;;;10.10;99.90;;;;;;5057445;28;20044;-53
2022/10/13 02:33:07;;;;;;;19.23;12.40;;;10.10;99.90;;;;;;5058096;28;20044;-52
2022/10/13 02:35:33;;;;;;;20.05;13.20;;;10.20;99.90;;;;;;5057514;28;20052;-53
2022/10/13 02:37:59;;;;;;;17.45;12.40;;;10.20;99.90;;;;;;5060840;28;20040;-53
2022/10/13 02:40:26;;;;;;;21.77;12.48;;;10.20;99.90;;;;;;5054542;28;20048;-54
2022/10/13 02:42:51;;;;;;;18.20;12.15;;;10.30;99.90;;;;;;5060033;28;20037;-52
2022/10/13 02:45:18;;;;;;;19.30;13.48;;;10.30;99.90;;;;;;5057822;28;20169;-54
2022/10/13 02:47:44;;;;;;;19.35;13.40;;;10.30;99.90;;;;;;5059521;28;20049;-53
2022/10/13 02:50:10;;;;;;;19.02;13.68;;;10.30;99.90;;;;;;5061231;28;20522;-53
2022/10/13 02:52:35;;;;;;;19.65;13.52;;;10.30;99.90;;;;;;5059003;28;20090;-52
2022/10/13 02:55:01;;;;;;;18.88;13.18;;;10.30;99.90;;;;;;5058659;28;20426;-52
2022/10/13 02:57:27;;;;;;;20.70;12.65;;;10.30;99.90;;;;;;5057494;28;20620;-55
2022/10/13 02:59:52;;;;;;;17.70;13.05;;;10.30;99.90;;;;;;5059421;28;20033;-54
2022/10/13 03:02:18;;;;;;;20.45;13.32;;;10.30;99.90;;;;;;5058336;28;20040;-52
2022/10/13 03:04:44;;;;;;;21.65;13.07;;;10.30;99.90;;;;;;5058345;28;20376;-53
2022/10/13 03:07:09;;;;;;;19.73;13.48;;;10.30;99.90;;;;;;5059617;28;20478;-54
2022/10/13 03:09:35;;;;;;;18.35;12.82;;;10.30;99.90;;;;;;5059822;28;20123;-56
2022/10/13 03:12:01;;;;;;;19.67;13.27;;;10.40;99.90;;;;;;5056401;28;20045;-52
2022/10/13 03:14:26;;;;;;;21.27;13.35;;;10.40;99.90;;;;;;5067447;28;20402;-54
2022/10/13 03:16:52;;;;;;;18.02;12.25;;;10.40;99.90;;;;;;5059794;28;20028;-52
2022/10/13 03:19:18;;;;;;;17.25;12.95;;;10.40;99.90;;;;;;5059563;28;20048;-53
2022/10/13 03:21:43;;;;;;;19.60;13.25;;;10.40;99.90;;;;;;5055670;28;20620;-56
2022/10/13 03:24:09;;;;;;;18.50;13.40;;;10.50;99.90;;;;;;5057179;28;20043;-54
2022/10/13 03:26:35;;;;;;;21.35;14.10;;;10.50;99.90;;;;;;5057917;28;20040;-55
2022/10/13 03:29:01;;;;;;;20.80;13.65;;;10.50;99.90;;;;;;5056110;28;20462;-54
2022/10/13 03:31:27;;;;;;;19.98;13.65;;;10.50;99.90;;;;;;5055189;28;20123;-54
2022/10/13 03:33:53;;;;;;;21.70;14.15;;;10.50;99.90;;;;;;5057724;28;20059;-53
2022/10/13 03:36:19;;;;;;;23.23;13.70;;;10.60;99.90;;;;;;5059079;28;20403;-54
2022/10/13 03:38:45;;;;;;;23.65;14.75;;;10.50;99.90;;;;;;5059973;28;20044;-54
2022/10/13 03:41:13;;;;;;;20.17;13.30;;;10.50;99.90;;;;;;5050392;28;20033;-54
2022/10/13 03:43:39;;;;;;;18.48;13.43;;;10.50;99.90;;;;;;5057964;28;20060;-55
2022/10/13 03:46:06;;;;;;;18.60;13.90;;;10.50;99.90;;;;;;5054797;28;20403;-54
2022/10/13 03:48:34;;;;;;;23.63;14.70;;;10.50;99.90;;;;;;5058804;28;20048;-54
2022/10/13 03:51:03;;;;;;;20.80;14.07;;;10.50;99.90;;;;;;5054629;28;20422;-54
2022/10/13 03:53:28;;;;;;;19.63;13.68;;;10.60;99.90;;;;;;5053119;28;20044;-54
2022/10/13 03:55:55;;;;;;;22.85;14.50;;;10.60;99.90;;;;;;5053852;28;20466;-53
2022/10/13 03:58:23;;;;;;;22.60;15.00;;;10.60;99.90;;;;;;5058243;28;20044;-54
2022/10/13 04:00:50;;;;;;;20.42;13.60;;;10.60;99.90;;;;;;5054689;28;20490;-54
2022/10/13 04:03:15;;;;;;;20.05;13.60;;;10.60;99.90;;;;;;5057129;28;20033;-52
2022/10/13 04:05:42;;;;;;;21.23;14.45;;;10.60;99.90;;;;;;5053953;28;20521;-54
2022/10/13 04:08:08;;;;;;;18.73;14.20;;;10.60;99.90;;;;;;5058146;28;20157;-54
2022/10/13 04:10:34;;;;;;;21.27;14.23;;;10.60;99.90;;;;;;5057173;28;20139;-55
2022/10/13 04:12:59;;;;;;;22.48;15.02;;;10.50;99.90;;;;;;5056995;28;20383;-53
2022/10/13 04:15:25;;;;;;;18.75;13.93;;;10.60;99.90;;;;;;5056923;28;20033;-54
2022/10/13 04:17:51;;;;;;;20.58;14.15;;;10.60;99.90;;;;;;5053395;28;20393;-54
2022/10/13 04:20:17;;;;;;;19.58;15.27;;;10.60;99.90;;;;;;5057777;28;20032;-54
2022/10/13 04:22:43;;;;;;;21.63;14.52;;;10.60;99.90;;;;;;5053297;28;20048;-53
2022/10/13 04:25:09;;;;;;;21.30;14.75;;;10.60;99.90;;;;;;5058252;28;20616;-55
2022/10/13 04:27:37;;;;;;;22.40;15.00;;;10.60;99.90;;;;;;5057133;28;20036;-52
2022/10/13 04:30:04;;;;;;;20.63;14.80;;;10.60;99.90;;;;;;5055675;28;20501;-54
2022/10/13 04:32:30;;;;;;;19.85;14.45;;;10.60;99.90;;;;;;5055356;28;20517;-53
2022/10/13 04:34:56;;;;;;;21.83;14.80;;;10.60;99.90;;;;;;5056988;28;20068;-53
2022/10/13 04:37:23;;;;;;;22.52;14.88;;;10.70;99.90;;;;;;5062058;28;20036;-52
2022/10/13 04:39:48;;;;;;;21.38;15.27;;;10.70;99.90;;;;;;5061136;28;20041;-52
2022/10/13 04:42:14;;;;;;;20.40;15.18;;;10.60;99.90;;;;;;5063048;28;20033;-54
2022/10/13 04:44:40;;;;;;;21.42;15.43;;;10.70;99.90;;;;;;5061161;28;20049;-54
2022/10/13 04:47:05;;;;;;;21.75;14.98;;;10.70;99.90;;;;;;5060736;28;20057;-54
2022/10/13 04:49:31;;;;;;;24.88;15.88;;;10.70;99.90;;;;;;5061053;28;20040;-53
2022/10/13 04:51:57;;;;;;;20.58;14.57;;;10.70;99.90;;;;;;5062016;28;20052;-52
2022/10/13 04:54:23;;;;;;;21.95;15.80;;;10.70;99.90;;;;;;5062345;28;20041;-56
2022/10/13 04:56:48;;;;;;;20.98;15.35;;;10.70;99.90;;;;;;5060301;28;20079;-52
2022/10/13 04:59:14;;;;;;;25.90;15.20;;;10.70;99.90;;;;;;5058322;28;20044;-53
2022/10/13 05:01:40;;;;;;;21.48;15.85;;;10.70;99.90;;;;;;5060987;28;20044;-51
2022/10/13 05:04:06;;;;;;;18.65;15.20;;;10.70;99.90;;;;;;5058997;28;20032;-53
2022/10/13 05:06:34;;;;;;;21.33;14.80;;;10.70;99.90;;;;;;5061125;28;20047;-54
2022/10/13 05:09:00;;;;;;;23.60;15.63;;;10.70;99.90;;;;;;5062065;28;20040;-51
2022/10/13 05:11:27;;;;;;;21.30;15.43;;;10.70;99.90;;;;;;5061254;28;20048;-55
2022/10/13 05:13:54;;;;;;;21.83;14.15;;;10.80;99.90;;;;;;5058498;28;20064;-52
2022/10/13 05:16:21;;;;;;;20.98;15.27;;;10.80;99.90;;;;;;5062088;28;20036;-50
2022/10/13 05:18:48;;;;;;;23.70;15.38;;;10.70;99.90;;;;;;5065823;28;20052;-52
2022/10/13 05:21:19;;;;;;;18.95;14.13;;;10.70;99.90;;;;;;5060251;28;20044;-52
2022/10/13 05:23:45;;;;;;;22.55;15.70;;;10.70;99.90;;;;;;5058290;28;20508;-51
2022/10/13 05:26:15;;;;;;;22.13;15.88;;;10.70;99.90;;;;;;5057351;28;20135;-51
2022/10/13 05:28:40;;;;;;;24.73;15.88;;;10.70;99.90;;;;;;5058768;28;20040;-51
2022/10/13 05:31:19;;;;;;;22.95;15.68;;;10.70;99.90;;;;;;5057526;28;20193;-52
2022/10/13 05:33:46;;;;;;;21.52;15.10;;;10.70;99.90;;;;;;5059267;28;20513;-53
2022/10/13 05:36:17;;;;;;;22.58;15.10;;;10.70;99.90;;;;;;5059222;28;20233;-55
2022/10/13 05:38:43;;;;;;;23.15;15.90;;;10.70;99.90;;;;;;5059095;28;20036;-55
2022/10/13 05:41:12;;;;;;;20.25;15.32;;;10.70;99.90;;;;;;5061906;28;20036;-54
2022/10/13 05:43:39;;;;;;;23.58;15.40;;;10.70;99.90;;;;;;5064448;28;20036;-53
2022/10/13 05:46:06;;;;;;;23.97;16.13;;;10.70;99.90;;;;;;5061652;28;21585;-54
2022/10/13 05:48:32;;;;;;;25.17;16.15;;;10.70;99.90;;;;;;5056576;28;20139;-53
2022/10/13 05:51:00;;;;;;;26.48;15.55;;;10.60;99.90;;;;;;5055554;28;20479;-53
2022/10/13 05:53:30;;;;;;;21.35;16.10;;;10.70;99.90;;;;;;5057709;28;20098;-54
2022/10/13 05:55:57;;;;;;;24.23;15.70;;;10.70;99.90;;;;;;5058470;28;20062;-53
2022/10/13 05:58:24;;;;;;;20.85;15.77;;;10.70;99.90;;;;;;5059761;28;20064;-54
2022/10/13 06:00:50;;;;;;;22.50;14.20;;;10.70;99.90;;;;;;5059458;28;20052;-55
2022/10/13 06:03:20;;;;;;;25.55;16.45;;;10.70;99.90;;;;;;5060695;28;20044;-54
2022/10/13 06:05:46;;;;;;;20.30;15.93;;;10.70;99.90;;;;;;5057407;28;20045;-52
2022/10/13 06:08:16;;;;;;;26.63;16.48;;;10.70;99.90;;;;;;5044197;28;20119;-53
2022/10/13 06:10:42;;;;;;;24.85;16.30;;;10.70;99.90;;;;;;5064602;28;20036;-54
2022/10/13 06:13:08;;;;;;;26.98;17.27;;;10.70;99.90;;;;;;5059784;28;20040;-53
2022/10/13 06:15:34;;;;;;;23.20;15.80;;;10.70;99.90;;;;;;5057571;28;20033;-55
2022/10/13 06:18:00;;;;;;;21.40;16.58;;;10.70;99.90;;;;;;5063478;28;20051;-55
2022/10/13 06:20:26;;;;;;;24.92;17.00;;;10.70;99.90;;;;;;5060004;28;20101;-53
2022/10/13 06:22:55;;;;;;;18.63;15.65;;;10.70;99.90;;;;;;5055797;28;20041;-50
2022/10/13 06:25:21;;;;;;;26.88;16.75;;;10.70;99.90;;;;;;5057730;28;20043;-54
2022/10/13 06:27:46;;;;;;;22.95;15.80;;;10.80;99.90;;;;;;5061598;28;20490;-50
2022/10/13 06:30:12;;;;;;;23.33;16.25;;;10.80;99.90;;;;;;5059022;28;20101;-53
2022/10/13 06:32:38;;;;;;;23.95;16.33;;;10.80;99.90;;;;;;5059153;28;20101;-55
2022/10/13 06:35:04;;;;;;;25.55;16.63;;;10.80;99.90;;;;;;5059598;28;20093;-54
2022/10/13 06:37:29;;;;;;;21.35;16.10;;;10.90;99.90;;;;;;5060927;28;20036;-53
2022/10/13 06:39:55;;;;;;;24.92;15.88;;;10.90;99.90;;;;;;5058881;28;20090;-53
2022/10/13 06:42:21;;;;;;;21.70;15.48;;;10.90;99.90;;;;;;5059551;28;20047;-53
2022/10/13 06:44:46;;;;;;;24.80;16.95;;;10.90;99.90;;;;;;5060291;28;20051;-52
2022/10/13 06:47:12;;;;;;;25.70;17.20;;;11.00;99.90;;;;;;5061882;28;20076;-54
2022/10/13 06:49:37;;;;;;;21.50;16.38;;;11.00;99.90;;;;;;5061496;28;20048;-54
2022/10/13 06:52:03;;;;;;;22.70;16.33;;;11.00;99.90;;;;;;5065053;28;20063;-50
2022/10/13 06:54:29;;;;;;;22.85;16.88;;;11.10;99.90;;;;;;5060227;28;20070;-54
2022/10/13 06:56:55;;;;;;;21.42;16.10;;;11.10;99.90;;;;;;5057554;28;20040;-53
2022/10/13 06:59:21;;;;;;;22.95;17.48;;;11.10;99.90;;;;;;5055888;28;20044;-52
2022/10/13 07:01:47;;;;;;;27.05;17.50;;;11.20;99.90;;;;;;5060261;28;20060;-52
2022/10/13 07:04:13;;;;;;;24.08;16.65;;;11.40;99.90;;;;;;5056442;28;20048;-54
2022/10/13 07:06:38;;;;;;;23.70;17.35;;;11.30;99.90;;;;;;5060100;28;20490;-54
2022/10/13 07:09:05;;;;;;;25.13;16.50;;;11.40;99.90;;;;;;5060001;28;20533;-52
2022/10/13 07:11:31;;;;;;;23.65;16.08;;;11.40;99.90;;;;;;5054971;28;20040;-50
2022/10/13 07:13:57;;;;;;;25.85;16.48;;;11.50;99.90;;;;;;5058409;28;20640;-54
2022/10/13 07:16:22;;;;;;;26.23;16.98;;;11.50;99.90;;;;;;5056973;28;20048;-49
2022/10/13 07:18:48;;;;;;;25.85;16.50;;;11.60;99.90;;;;;;5060573;28;20075;-52
2022/10/13 07:21:14;;;;;;;23.85;16.63;;;11.70;99.90;;;;;;5058863;28;20127;-53
2022/10/13 07:23:39;;;;;;;23.75;15.32;;;11.70;99.90;;;;;;5055005;28;20468;-54
2022/10/13 07:26:14;;;;;;;24.08;16.27;;;;;;;;;;5060185;28;20044;-56
2022/10/13 07:28:40;;;;;;;23.50;15.70;;;12.00;99.90;;;;;;5059045;28;20501;-56
2022/10/13 07:31:15;;;;;;;24.25;16.75;;;12.00;99.90;;;;;;5055490;28;20033;-56
2022/10/13 07:33:41;;;;;;;22.35;15.68;;;;;;;;;;5056686;28;20127;-53
2022/10/13 07:36:08;;;;;;;24.05;16.17;;;11.90;99.90;;;;;;5056590;28;20073;-53
2022/10/13 07:38:34;;;;;;;22.55;17.15;;;11.90;99.90;;;;;;5054562;28;20044;-53
2022/10/13 07:41:01;;;;;;;29.30;17.08;;;12.00;99.90;;;;;;5053389;28;20037;-54
2022/10/13 07:43:27;;;;;;;25.00;17.38;;;;;;;;;;5062439;28;20495;-54
2022/10/13 07:45:52;;;;;;;25.70;16.73;;;12.10;99.90;;;;;;5060786;28;20530;-52
2022/10/13 07:48:18;;;;;;;23.13;16.77;;;12.10;99.90;;;;;;5060025;28;20048;-55
2022/10/13 07:50:44;;;;;;;25.38;16.52;;;12.20;99.90;;;;;;5061912;28;20045;-54
2022/10/13 07:53:09;;;;;;;19.17;15.13;;;12.30;99.90;;;;;;5059711;28;20572;-53
2022/10/13 07:55:35;;;;;;;24.48;16.42;;;12.30;99.90;;;;;;5058557;28;20048;-54
2022/10/13 07:58:02;;;;;;;21.33;16.63;;;12.40;99.90;;;;;;5059692;28;20446;-54
2022/10/13 08:00:28;;;;;;;26.48;16.00;;;12.40;99.90;;;;;;5061791;28;20056;-55
2022/10/13 08:02:53;;;;;;;26.00;17.15;;;12.60;99.90;;;;;;5063933;28;20044;-54
2022/10/13 08:05:19;;;;;;;23.17;16.17;;;12.60;99.90;;;;;;5060148;28;20045;-53
2022/10/13 08:07:45;;;;;;;24.10;16.75;;;12.70;99.90;;;;;;5059506;28;20089;-56
2022/10/13 08:10:12;;;;;;;21.45;16.13;;;12.70;99.90;;;;;;5058899;28;20049;-54
2022/10/13 08:12:38;;;;;;;22.05;16.45;;;12.70;99.90;;;;;;5059846;28;20442;-54
2022/10/13 08:15:04;;;;;;;22.33;16.48;;;12.80;99.90;;;;;;5063791;28;20044;-55
2022/10/13 08:17:30;;;;;;;20.80;16.23;;;12.80;99.90;;;;;;5070207;28;20077;-52
2022/10/13 08:19:55;;;;;;;18.88;15.48;;;12.80;99.90;;;;;;5071506;28;20037;-57
2022/10/13 08:22:21;;;;;;;19.90;16.60;;;12.90;99.90;;;;;;5070925;28;20471;-54
2022/10/13 08:24:47;;;;;;;22.42;15.85;;;13.00;99.90;;;;;;5073402;28;20086;-55
2022/10/13 08:27:21;;;;;;;24.77;16.38;;;13.10;99.90;;;;;;5062117;28;20040;-54
2022/10/13 08:29:47;;;;;;;22.00;15.40;;;13.30;99.90;;;;;;5065370;28;20375;-54
2022/10/13 08:32:12;;;;;;;23.50;16.45;;;13.50;99.90;;;;;;5062748;28;20077;-51
2022/10/13 08:34:38;;;;;;;21.27;15.73;;;13.70;99.90;;;;;;5063268;28;20045;-54
2022/10/13 08:37:04;;;;;;;19.33;15.00;;;13.70;99.90;;;;;;5067772;28;20386;-55
2022/10/13 08:39:30;;;;;;;20.42;15.50;;;13.80;99.90;;;;;;5061894;28;20093;-53
2022/10/13 08:41:56;;;;;;;19.75;15.15;;;13.70;99.90;;;;;;5064456;28;20040;-55
2022/10/13 08:44:39;;;;;;;22.95;15.70;;;13.60;99.90;;;;;;5063164;28;20040;-53
2022/10/13 08:47:15;;;;;;;23.13;14.90;;;13.50;99.90;;;;;;5062874;28;20056;-54
2022/10/13 08:49:42;;;;;;;20.83;14.15;;;13.40;99.90;;;;;;5062750;28;20056;-54
2022/10/13 08:52:21;;;;;;;22.15;14.48;;;13.40;99.90;;;;;;5060347;28;20471;-53
2022/10/13 08:54:47;;;;;;;20.88;15.40;;;13.40;99.90;;;;;;5062659;28;20044;-54
2022/10/13 08:57:13;;;;;;;20.02;14.50;;;13.30;99.90;;;;;;5060961;28;20036;-56
2022/10/13 08:59:38;;;;;;;20.02;14.77;;;13.30;99.90;;;;;;5059452;28;20908;-55
2022/10/13 09:02:21;;;;;;;23.25;15.05;;;13.30;99.90;;;;;;5063055;28;20086;-54
2022/10/13 09:04:50;;;;;;;21.77;15.38;;;13.30;99.90;;;;;;5058633;28;20071;-53
2022/10/13 09:07:28;;;;;;;25.52;15.77;;;13.30;99.90;;;;;;5058045;28;20059;-55
2022/10/13 09:09:54;;;;;;;24.33;16.13;;;13.30;99.90;;;;;;5064926;28;20080;-55
2022/10/13 09:12:23;;;;;;;23.80;16.33;;;13.40;99.90;;;;;;5067919;28;20040;-54
2022/10/13 09:15:04;;;;;;;21.50;15.98;;;13.40;99.90;;;;;;5070281;28;20056;-56
2022/10/13 09:17:31;;;;;;;27.77;16.60;;;13.50;99.90;;;;;;5064850;28;20136;-51
2022/10/13 09:20:04;;;;;;;22.17;16.17;;;13.50;99.90;;;;;;5071258;28;20041;-55
2022/10/13 09:22:31;;;;;;;21.85;16.48;;;13.60;99.90;;;;;;5062445;28;20789;-54
2022/10/13 09:25:06;;;;;;;28.60;16.17;;;13.80;99.90;;;;;;5063733;28;20178;-53
2022/10/13 09:27:48;;;;;;;20.08;15.40;;;13.90;99.90;;;;;;5064418;28;20044;-55
2022/10/13 09:30:28;;;;;;;25.83;16.77;;;14.00;99.90;;;;;;5068952;28;20579;-53
2022/10/13 09:33:07;;;;;;;23.17;17.33;;;14.10;99.90;;;;;;5067177;28;20498;-55
2022/10/13 09:35:43;;;;;;;21.50;15.75;;;14.30;99.90;;;;;;5067787;28;20037;-55
2022/10/13 09:38:20;;;;;;;19.10;16.23;;;14.40;99.90;;;;;;5067336;28;20086;-55
2022/10/13 09:41:18;;;;;;;26.17;16.15;;;14.50;99.90;;;;;;5062427;28;20048;-54
2022/10/13 09:43:46;;;;;;;21.02;15.50;;;14.70;99.90;;;;;;5059205;28;20490;-55
2022/10/13 09:46:22;;;;;;;20.17;14.95;;;15.00;99.90;;;;;;5068165;28;20082;-54
2022/10/13 09:48:52;;;;;;;23.67;15.23;;;15.10;99.90;;;;;;5064555;28;20315;-54
2022/10/13 09:51:37;;;;;;;20.10;14.68;;;15.40;99.90;;;;;;5071090;28;20120;-53
2022/10/13 09:54:05;;;;;;;21.35;14.80;;;15.60;99.90;;;;;;5069210;28;20045;-55
2022/10/13 09:56:36;;;;;;;22.80;14.77;;;15.70;99.90;;;;;;5066332;28;20044;-57
2022/10/13 09:59:20;;;;;;;21.08;13.77;;;16.00;99.90;;;;;;5063873;28;20620;-53
2022/10/13 10:01:48;;;;;;;19.83;14.68;;;15.90;99.90;;;;;;5061991;28;20064;-52
2022/10/13 10:04:21;;;;;;;19.00;14.73;;;16.10;99.90;;;;;;5067189;28;20037;-54
2022/10/13 10:06:46;;;;;;;19.98;15.35;;;15.90;99.90;;;;;;5066007;28;20048;-53
2022/10/13 10:09:38;;;;;;;20.10;15.13;;;15.90;99.90;;;;;;5065286;28;20051;-57
2022/10/13 10:12:05;;;;;;;18.65;15.75;;;15.70;99.90;;;;;;5066690;28;20044;-57
2022/10/13 10:14:38;;;;;;;20.85;15.57;;;15.70;99.90;;;;;;5065201;28;20124;-54
2022/10/13 10:17:33;;;;;;;19.63;15.73;;;15.70;99.90;;;;;;5066894;28;20047;-56
2022/10/13 10:20:36;;;;;;;19.23;14.82;;;15.70;99.90;;;;;;5065682;28;20520;-55
2022/10/13 10:23:10;;;;;;;19.55;14.48;;;15.80;99.90;;;;;;5063578;28;20041;-55
2022/10/13 10:25:49;;;;;;;18.63;14.52;;;15.70;99.90;;;;;;5062348;28;20175;-55
2022/10/13 10:28:28;;;;;;;22.35;15.27;;;15.70;99.90;;;;;;5075193;28;20423;-54
2022/10/13 10:31:09;;;;;;;22.90;15.15;;;15.60;99.90;;;;;;5093202;28;20553;-56
2022/10/13 10:34:01;;;;;;;19.92;15.93;;;15.70;99.90;;;;;;5066674;28;20045;-56
2022/10/13 10:36:42;;;;;;;19.27;14.90;;;15.70;99.90;;;;;;5064084;28;20041;-56
2022/10/13 10:39:30;;;;;;;18.70;16.13;;;15.80;99.90;;;;;;5066389;28;20041;-56
2022/10/13 10:42:18;;;;;;;21.80;15.88;;;15.80;99.90;;;;;;5061430;28;20059;-56
2022/10/13 10:44:47;;;;;;;25.08;17.05;;;15.70;99.90;;;;;;5060393;28;20562;-57
2022/10/13 10:47:23;;;;;;;19.40;16.70;;;15.60;99.90;;;;;;5069668;28;20056;-56
2022/10/13 10:49:52;;;;;;;24.45;18.15;;;15.50;99.90;;;;;;5081044;28;20044;-55
2022/10/13 10:52:27;;;;;;;21.67;16.67;;;15.60;99.90;;;;;;5060171;28;20403;-55
2022/10/13 10:55:00;;;;;;;23.70;17.17;;;15.60;99.90;;;;;;5067407;28;20398;-54
2022/10/13 10:57:42;;;;;;;20.15;16.35;;;15.60;99.90;;;;;;5070535;28;20391;-52
2022/10/13 11:00:16;;;;;;;18.73;16.10;;;15.70;99.90;;;;;;5068945;28;20059;-54
2022/10/13 11:03:07;;;;;;;26.15;16.60;;;15.70;99.90;;;;;;5065460;28;20418;-53
2022/10/13 11:05:57;;;;;;;23.33;16.20;;;15.60;99.90;;;;;;5068447;28;20398;-54
2022/10/13 11:08:43;;;;;;;23.10;16.63;;;15.70;99.90;;;;;;5063187;28;20087;-54
2022/10/13 11:11:21;;;;;;;21.33;16.23;;;15.80;99.90;;;;;;5066399;28;20041;-56
2022/10/13 11:14:04;;;;;;;19.15;15.95;;;15.70;99.90;;;;;;5063732;28;20102;-56
2022/10/13 11:16:37;;;;;;;18.17;15.77;;;15.60;99.90;;;;;;5066238;28;20041;-53
2022/10/13 11:19:30;;;;;;;19.00;16.33;;;15.60;99.90;;;;;;5080832;28;20406;-53
2022/10/13 11:21:59;;;;;;;19.42;16.13;;;15.50;99.90;;;;;;5067618;28;20495;-56
2022/10/13 11:24:39;;;;;;;20.52;17.00;;;15.40;99.90;;;;;;5061627;28;20132;-55
2022/10/13 11:27:09;;;;;;;21.80;16.85;;;15.30;99.90;;;;;;5062275;28;20127;-56
2022/10/13 11:29:47;;;;;;;19.35;17.10;;;15.30;99.90;;;;;;5065708;28;20056;-55
2022/10/13 11:32:26;;;;;;;19.42;17.02;;;15.30;99.90;;;;;;5062085;28;20048;-52
2022/10/13 11:34:57;;;;;;;23.83;18.08;;;15.40;99.90;;;;;;5062675;28;20136;-54
2022/10/13 11:37:29;;;;;;;21.20;17.38;;;15.30;99.90;;;;;;5059161;28;20435;-55
2022/10/13 11:40:12;;;;;;;21.98;18.30;;;15.40;99.90;;;;;;5069129;28;20045;-55
2022/10/13 11:43:11;;;;;;;25.00;18.55;;;15.30;99.90;;;;;;5067642;28;20066;-54
2022/10/13 11:46:19;;;;;;;20.38;16.95;;;15.30;99.90;;;;;;5068738;28;20112;-53
2022/10/13 11:49:03;;;;;;;25.35;18.25;;;15.20;99.90;;;;;;5069882;28;20041;-55
2022/10/13 11:51:50;;;;;;;23.70;18.73;;;15.10;99.90;;;;;;5072343;28;20033;-53
2022/10/13 11:54:38;;;;;;;21.45;18.70;;;15.10;99.90;;;;;;5069809;28;20124;-54
2022/10/13 11:57:24;;;;;;;22.52;18.58;;;15.00;99.90;;;;;;5066501;28;20045;-54
2022/10/13 11:59:54;;;;;;;24.60;18.52;;;15.00;99.90;;;;;;5071625;28;20052;-54
2022/10/13 12:02:22;;;;;;;22.88;18.92;;;15.00;99.90;;;;;;5081177;28;20047;-55
2022/10/13 12:05:02;;;;;;;;;;;14.90;99.90;;;;;;5077961;28;20047;-54
2022/10/13 12:07:34;;;;;;;21.95;18.27;;;14.90;99.90;;;;;;5078060;28;19928;-55
2022/10/13 12:10:00;;;;;;;24.27;18.15;;;14.80;99.90;;;;;;5084254;28;20044;-55
2022/10/13 12:12:26;;;;;;;21.13;17.45;;;14.80;99.90;;;;;;5072405;28;20044;-54
2022/10/13 12:14:54;;;;;;;23.65;18.23;;;14.80;99.90;;;;;;5071408;28;20072;-53
2022/10/13 12:17:26;;;;;;;22.40;17.20;;;14.80;99.90;;;;;;5075063;28;20042;-55
2022/10/13 12:19:57;;;;;;;23.20;18.17;;;14.70;99.90;;;;;;5066143;28;20040;-57
2022/10/13 12:22:23;;;;;;;19.58;17.33;;;14.80;99.90;;;;;;5069201;28;20060;-55
2022/10/13 12:25:03;;;;;;;22.45;18.48;;;14.70;99.90;;;;;;5069968;28;20051;-53
2022/10/13 12:27:31;;;;;;;20.67;17.30;;;14.70;99.90;;;;;;5071808;28;20127;-55
2022/10/13 12:29:57;;;;;;;;;;;14.80;99.90;;;;;;5071169;28;20048;-56
2022/10/13 12:32:26;;;;;;;21.13;17.88;;;14.90;99.90;;;;;;5069723;28;19924;-54
2022/10/13 12:34:51;;;;;;;21.85;19.08;;;14.90;99.90;;;;;;5068958;28;20041;-55
2022/10/13 12:37:27;;;;;;;24.35;19.50;;;15.00;99.90;;;;;;5070867;28;20682;-55
2022/10/13 12:39:56;;;;;;;20.95;18.77;;;15.10;99.90;;;;;;5066046;28;20083;-55
2022/10/13 12:42:27;;;;;;;24.98;19.98;;;15.10;99.90;;;;;;5067297;28;20056;-55
2022/10/13 12:44:53;;;;;;;26.77;19.77;;;15.20;99.90;;;;;;5069276;28;20072;-54
2022/10/13 12:47:54;;;;;;;23.35;18.73;;;15.20;99.90;;;;;;5064577;28;20481;-55